Wetterdaten: Woche 12.06.17 - 18.06.17 (KW24)
Datum Zeit Temp. I. Temp. A. Feuchte I. Feuchte A. Luftdruck Regen Wind Richtung Sonnenschein UV Solar Taupunkt Windchill Windben
12.06.2017 00:00 25,1 C 18,4 C 50 % 71 % 1013,5 hPa 0,0 l/m 0,0 km/h (0 Bft) N 0,00 h 0,0 UV-I 0 W/m 13,1 C 18,4 C 0,0 km/h (0 Bft)
12.06.2017 01:00 25,0 C 18,1 C 50 % 71 % 1013,1 hPa 0,0 l/m 0,4 km/h (0 Bft) SO 0,00 h 0,0 UV-I 0 W/m 12,7 C 18,1 C 1,0 km/h (0 Bft)
12.06.2017 02:00 24,9 C 17,1 C 51 % 77 % 1012,8 hPa 0,0 l/m 0,0 km/h (0 Bft) N 0,00 h 0,0 UV-I 0 W/m 13,1 C 17,1 C 0,1 km/h (0 Bft)
12.06.2017 03:00 24,9 C 17,1 C 51 % 74 % 1012,3 hPa 0,0 l/m 0,7 km/h (0 Bft) W-SW 0,00 h 0,0 UV-I 0 W/m 12,4 C 17,1 C 1,4 km/h (1 Bft)
12.06.2017 04:00 24,9 C 17,5 C 51 % 67 % 1011,8 hPa 0,0 l/m 0,2 km/h (0 Bft) W 0,00 h 0,0 UV-I 0 W/m 11,2 C 17,5 C 0,7 km/h (0 Bft)
12.06.2017 05:00 24,8 C 16,3 C 51 % 72 % 1011,9 hPa 0,0 l/m 0,0 km/h (0 Bft) N 0,00 h 0,0 UV-I 12 W/m 11,3 C 16,3 C 0,0 km/h (0 Bft)
12.06.2017 06:00 24,7 C 16,6 C 51 % 77 % 1011,8 hPa 0,0 l/m 0,0 km/h (0 Bft) N 0,00 h 0,0 UV-I 51 W/m 12,5 C 16,6 C 0,0 km/h (0 Bft)
12.06.2017 07:00 24,8 C 18,2 C 51 % 69 % 1011,5 hPa 0,0 l/m 1,8 km/h (1 Bft) S 0,00 h 0,6 UV-I 69 W/m 12,3 C 18,2 C 3,8 km/h (1 Bft)
12.06.2017 08:00 24,9 C 19,4 C 51 % 69 % 1011,6 hPa 0,0 l/m 4,0 km/h (1 Bft) S 0,70 h 1,5 UV-I 241 W/m 13,4 C 19,3 C 6,9 km/h (2 Bft)
12.06.2017 09:00 25,0 C 21,5 C 51 % 67 % 1011,6 hPa 0,0 l/m 8,6 km/h (2 Bft) W-SW 1,00 h 2,2 UV-I 287 W/m 15,1 C 20,5 C 13,5 km/h (3 Bft)
12.06.2017 10:00 25,0 C 23,0 C 51 % 65 % 1011,5 hPa 0,0 l/m 10,1 km/h (2 Bft) W-SW 1,00 h 4,6 UV-I 731 W/m 16,1 C 22,0 C 17,9 km/h (3 Bft)
12.06.2017 11:00 25,1 C 23,4 C 52 % 65 % 1011,8 hPa 0,0 l/m 10,1 km/h (2 Bft) W-SW 0,93 h 4,0 UV-I 462 W/m 16,3 C 22,4 C 15,0 km/h (3 Bft)
12.06.2017 12:00 25,2 C 24,3 C 52 % 58 % 1012,0 hPa 0,0 l/m 14,8 km/h (3 Bft) W-SW 1,00 h 6,6 UV-I 722 W/m 15,6 C 22,7 C 25,5 km/h (4 Bft)
12.06.2017 13:00 25,2 C 24,4 C 52 % 55 % 1012,0 hPa 0,0 l/m 17,4 km/h (3 Bft) W-SW 1,00 h 6,8 UV-I 846 W/m 14,8 C 22,4 C 30,6 km/h (5 Bft)
12.06.2017 14:00 25,6 C 24,4 C 52 % 52 % 1012,0 hPa 0,0 l/m 17,6 km/h (3 Bft) W-SW 1,00 h 6,5 UV-I 815 W/m 14,0 C 22,4 C 26,3 km/h (4 Bft)
12.06.2017 15:00 25,4 C 24,3 C 50 % 46 % 1012,3 hPa 0,0 l/m 14,0 km/h (3 Bft) W 1,00 h 5,3 UV-I 750 W/m 11,8 C 22,7 C 24,7 km/h (4 Bft)
12.06.2017 16:00 25,5 C 24,5 C 48 % 42 % 1012,3 hPa 0,0 l/m 13,9 km/h (3 Bft) W 0,97 h 3,8 UV-I 640 W/m 10,6 C 23,0 C 23,4 km/h (4 Bft)
12.06.2017 17:00 25,6 C 23,9 C 45 % 39 % 1012,3 hPa 0,0 l/m 11,7 km/h (2 Bft) W 0,87 h 2,4 UV-I 453 W/m 9,2 C 22,6 C 21,5 km/h (4 Bft)
12.06.2017 18:00 25,5 C 22,7 C 45 % 34 % 1012,3 hPa 0,0 l/m 9,8 km/h (2 Bft) W-SW 0,00 h 1,2 UV-I 46 W/m 5,9 C 21,6 C 18,3 km/h (3 Bft)
12.06.2017 19:00 25,6 C 21,5 C 45 % 37 % 1012,7 hPa 0,0 l/m 6,1 km/h (2 Bft) W 0,00 h 0,5 UV-I 39 W/m 6,2 C 21,0 C 11,7 km/h (2 Bft)
12.06.2017 20:00 25,6 C 20,1 C 45 % 45 % 1013,0 hPa 0,0 l/m 1,8 km/h (1 Bft) W 0,00 h 0,0 UV-I 27 W/m 7,7 C 20,1 C 4,7 km/h (1 Bft)
12.06.2017 21:00 25,7 C 18,8 C 45 % 53 % 1013,8 hPa 0,0 l/m 2,8 km/h (1 Bft) NW 0,00 h 0,0 UV-I 6 W/m 8,9 C 18,7 C 7,7 km/h (2 Bft)
12.06.2017 22:00 25,6 C 17,6 C 46 % 56 % 1014,3 hPa 0,0 l/m 0,5 km/h (0 Bft) W 0,00 h 0,0 UV-I 0 W/m 8,6 C 17,6 C 1,4 km/h (1 Bft)
12.06.2017 23:00 25,3 C 16,3 C 46 % 61 % 1014,6 hPa 0,0 l/m 0,2 km/h (0 Bft) NW 0,00 h 0,0 UV-I 0 W/m 8,7 C 16,3 C 1,0 km/h (0 Bft)
13.06.2017 00:00 25,5 C 14,4 C 47 % 69 % 1015,2 hPa 0,0 l/m 0,0 km/h (0 Bft) N 0,00 h 0,0 UV-I 0 W/m 8,8 C 14,4 C 0,1 km/h (0 Bft)
13.06.2017 01:00 25,6 C 12,8 C 48 % 78 % 1015,6 hPa 0,0 l/m 0,0 km/h (0 Bft) N 0,00 h 0,0 UV-I 0 W/m 9,0 C 12,8 C 0,0 km/h (0 Bft)
13.06.2017 02:00 25,5 C 11,5 C 48 % 84 % 1015,9 hPa 0,0 l/m 0,0 km/h (0 Bft) N 0,00 h 0,0 UV-I 0 W/m 8,9 C 11,5 C 0,0 km/h (0 Bft)
13.06.2017 03:00 25,4 C 10,7 C 48 % 88 % 1016,1 hPa 0,0 l/m 0,0 km/h (0 Bft) N 0,00 h 0,0 UV-I 0 W/m 8,8 C 10,7 C 0,0 km/h (0 Bft)
13.06.2017 04:00 25,2 C 10,9 C 48 % 87 % 1016,1 hPa 0,0 l/m 0,0 km/h (0 Bft) N 0,00 h 0,0 UV-I 0 W/m 8,9 C 10,9 C 0,0 km/h (0 Bft)
13.06.2017 05:00 25,1 C 10,5 C 48 % 88 % 1016,3 hPa 0,0 l/m 0,0 km/h (0 Bft) N 0,00 h 0,0 UV-I 12 W/m 8,6 C 10,5 C 0,0 km/h (0 Bft)
13.06.2017 06:00 25,1 C 10,7 C 48 % 88 % 1016,6 hPa 0,0 l/m 0,0 km/h (0 Bft) N 0,00 h 0,5 UV-I 34 W/m 8,8 C 10,7 C 0,0 km/h (0 Bft)
13.06.2017 07:00 25,1 C 13,1 C 48 % 79 % 1016,5 hPa 0,0 l/m 0,0 km/h (0 Bft) N 0,65 h 1,0 UV-I 241 W/m 9,6 C 13,1 C 0,0 km/h (0 Bft)
13.06.2017 08:00 25,0 C 14,9 C 47 % 72 % 1016,6 hPa 0,0 l/m 2,0 km/h (1 Bft) W-SW 0,98 h 1,5 UV-I 285 W/m 9,8 C 14,9 C 4,4 km/h (1 Bft)
13.06.2017 09:00 25,1 C 16,5 C 46 % 66 % 1016,5 hPa 0,0 l/m 6,5 km/h (2 Bft) W-SW 0,95 h 2,6 UV-I 523 W/m 10,0 C 15,9 C 12,0 km/h (2 Bft)
13.06.2017 10:00 25,2 C 17,6 C 46 % 60 % 1016,7 hPa 0,0 l/m 8,0 km/h (2 Bft) W 1,00 h 4,1 UV-I 628 W/m 9,7 C 16,6 C 13,9 km/h (3 Bft)
13.06.2017 11:00 25,3 C 17,5 C 46 % 60 % 1016,9 hPa 0,0 l/m 4,9 km/h (1 Bft) W-SW 1,00 h 3,7 UV-I 362 W/m 9,6 C 17,2 C 10,7 km/h (2 Bft)
13.06.2017 12:00 25,3 C 18,2 C 46 % 59 % 1017,0 hPa 0,0 l/m 4,7 km/h (1 Bft) W 1,00 h 4,7 UV-I 539 W/m 9,9 C 18,0 C 9,9 km/h (2 Bft)
13.06.2017 13:00 25,3 C 20,2 C 45 % 54 % 1016,9 hPa 0,0 l/m 4,9 km/h (1 Bft) W-NW 1,00 h 6,8 UV-I 817 W/m 10,5 C 19,9 C 10,0 km/h (2 Bft)
13.06.2017 14:00 25,4 C 20,4 C 45 % 54 % 1016,8 hPa 0,0 l/m 4,3 km/h (1 Bft) W-NW 1,00 h 5,5 UV-I 619 W/m 10,7 C 20,1 C 8,2 km/h (2 Bft)
13.06.2017 15:00 25,6 C 20,6 C 45 % 53 % 1016,4 hPa 0,0 l/m 3,5 km/h (1 Bft) NW 1,00 h 4,8 UV-I 609 W/m 10,7 C 20,6 C 6,8 km/h (2 Bft)
13.06.2017 16:00 25,5 C 21,0 C 44 % 51 % 1016,4 hPa 0,0 l/m 3,9 km/h (1 Bft) W-NW 0,95 h 3,6 UV-I 520 W/m 10,6 C 20,8 C 8,2 km/h (2 Bft)
13.06.2017 17:00 25,3 C 20,5 C 43 % 52 % 1016,5 hPa 0,0 l/m 4,2 km/h (1 Bft) W-NW 0,85 h 2,3 UV-I 418 W/m 10,4 C 20,3 C 7,5 km/h (2 Bft)
13.06.2017 18:00 25,1 C 19,7 C 42 % 53 % 1016,5 hPa 0,0 l/m 6,8 km/h (2 Bft) W-NW 0,00 h 1,2 UV-I 66 W/m 9,8 C 19,0 C 10,6 km/h (2 Bft)
13.06.2017 19:00 25,3 C 18,5 C 44 % 58 % 1016,5 hPa 0,0 l/m 7,4 km/h (2 Bft) N 0,00 h 0,6 UV-I 58 W/m 10,0 C 17,6 C 12,3 km/h (3 Bft)
13.06.2017 20:00 25,3 C 16,7 C 45 % 64 % 1016,6 hPa 0,0 l/m 3,0 km/h (1 Bft) N 0,00 h 0,0 UV-I 19 W/m 9,9 C 16,5 C 5,6 km/h (1 Bft)
13.06.2017 21:00 25,4 C 14,9 C 45 % 71 % 1017,1 hPa 0,0 l/m 0,1 km/h (0 Bft) N-NO 0,00 h 0,0 UV-I 7 W/m 9,6 C 14,9 C 0,3 km/h (0 Bft)
13.06.2017 22:00 25,4 C 13,8 C 45 % 75 % 1017,7 hPa 0,0 l/m 0,0 km/h (0 Bft) N 0,00 h 0,0 UV-I 0 W/m 9,5 C 13,8 C 0,0 km/h (0 Bft)
13.06.2017 23:00 25,2 C 12,6 C 45 % 81 % 1018,1 hPa 0,0 l/m 0,0 km/h (0 Bft) N 0,00 h 0,0 UV-I 0 W/m 9,5 C 12,6 C 0,0 km/h (0 Bft)
14.06.2017 00:00 25,1 C 11,5 C 46 % 87 % 1018,5 hPa 0,0 l/m 0,0 km/h (0 Bft) N 0,00 h 0,0 UV-I 0 W/m 9,4 C 11,5 C 0,0 km/h (0 Bft)
14.06.2017 01:00 24,9 C 10,5 C 46 % 90 % 1018,6 hPa 0,0 l/m 0,0 km/h (0 Bft) N 0,00 h 0,0 UV-I 0 W/m 8,9 C 10,5 C 0,0 km/h (0 Bft)
14.06.2017 02:00 24,8 C 9,7 C 46 % 92 % 1018,6 hPa 0,0 l/m 0,0 km/h (0 Bft) N 0,00 h 0,0 UV-I 0 W/m 8,4 C 9,7 C 0,0 km/h (0 Bft)
14.06.2017 03:00 24,9 C 8,9 C 47 % 93 % 1018,4 hPa 0,0 l/m 0,0 km/h (0 Bft) N 0,00 h 0,0 UV-I 0 W/m 7,8 C 8,9 C 0,0 km/h (0 Bft)
14.06.2017 04:00 24,8 C 8,5 C 47 % 93 % 1018,7 hPa 0,0 l/m 0,0 km/h (0 Bft) N 0,00 h 0,0 UV-I 0 W/m 7,4 C 8,5 C 0,0 km/h (0 Bft)
14.06.2017 05:00 24,7 C 7,8 C 47 % 94 % 1019,0 hPa 0,0 l/m 0,0 km/h (0 Bft) N 0,00 h 0,0 UV-I 12 W/m 6,9 C 7,8 C 0,0 km/h (0 Bft)
14.06.2017 06:00 24,6 C 8,8 C 47 % 93 % 1019,1 hPa 0,0 l/m 0,0 km/h (0 Bft) N 0,00 h 0,0 UV-I 25 W/m 7,8 C 8,8 C 0,0 km/h (0 Bft)
14.06.2017 07:00 24,7 C 11,8 C 46 % 88 % 1019,4 hPa 0,0 l/m 0,0 km/h (0 Bft) N 0,65 h 1,0 UV-I 223 W/m 9,8 C 11,8 C 0,0 km/h (0 Bft)
14.06.2017 08:00 24,1 C 15,8 C 46 % 75 % 1019,2 hPa 0,0 l/m 0,2 km/h (0 Bft) O 1,00 h 2,0 UV-I 488 W/m 11,5 C 15,8 C 0,6 km/h (0 Bft)
14.06.2017 09:00 23,8 C 17,8 C 46 % 66 % 1019,2 hPa 0,0 l/m 1,0 km/h (0 Bft) N 1,00 h 3,1 UV-I 640 W/m 11,4 C 17,8 C 2,0 km/h (1 Bft)
14.06.2017 10:00 24,2 C 19,9 C 45 % 59 % 1019,0 hPa 0,0 l/m 1,3 km/h (1 Bft) N-NO 1,00 h 5,0 UV-I 847 W/m 11,6 C 19,9 C 3,4 km/h (1 Bft)
14.06.2017 11:00 24,2 C 21,2 C 45 % 54 % 1018,8 hPa 0,0 l/m 2,6 km/h (1 Bft) N-NO 1,00 h 6,3 UV-I 867 W/m 11,6 C 21,2 C 5,5 km/h (1 Bft)
14.06.2017 12:00 24,4 C 22,3 C 44 % 50 % 1018,5 hPa 0,0 l/m 2,0 km/h (1 Bft) W-NW 1,00 h 7,1 UV-I 892 W/m 11,2 C 22,3 C 5,7 km/h (1 Bft)
14.06.2017 13:00 24,6 C 23,3 C 44 % 47 % 1018,2 hPa 0,0 l/m 2,7 km/h (1 Bft) NW 1,00 h 7,3 UV-I 894 W/m 11,4 C 23,2 C 5,5 km/h (1 Bft)
14.06.2017 14:00 24,9 C 24,3 C 43 % 44 % 1017,8 hPa 0,0 l/m 4,4 km/h (1 Bft) W-NW 1,00 h 6,6 UV-I 856 W/m 11,3 C 24,1 C 8,6 km/h (2 Bft)
14.06.2017 15:00 25,2 C 24,3 C 42 % 42 % 1017,1 hPa 0,0 l/m 2,1 km/h (1 Bft) N-NO 1,00 h 5,2 UV-I 748 W/m 10,5 C 24,3 C 4,4 km/h (1 Bft)
14.06.2017 16:00 25,2 C 24,4 C 41 % 41 % 1016,7 hPa 0,0 l/m 2,9 km/h (1 Bft) N-NW 1,00 h 3,8 UV-I 648 W/m 10,1 C 24,4 C 6,0 km/h (2 Bft)
14.06.2017 17:00 25,2 C 24,2 C 41 % 41 % 1016,2 hPa 0,0 l/m 3,8 km/h (1 Bft) W-NW 0,87 h 2,5 UV-I 447 W/m 10,0 C 24,1 C 8,3 km/h (2 Bft)
14.06.2017 18:00 25,1 C 23,1 C 41 % 42 % 1015,8 hPa 0,0 l/m 3,6 km/h (1 Bft) NW 0,00 h 0,0 UV-I 43 W/m 9,5 C 23,1 C 7,3 km/h (2 Bft)
14.06.2017 19:00 25,1 C 22,1 C 41 % 43 % 1015,6 hPa 0,0 l/m 2,5 km/h (1 Bft) N 0,00 h 0,0 UV-I 32 W/m 8,7 C 22,1 C 5,8 km/h (1 Bft)
14.06.2017 20:00 25,1 C 20,6 C 42 % 45 % 1015,5 hPa 0,0 l/m 2,4 km/h (1 Bft) N-NO 0,00 h 0,0 UV-I 17 W/m 8,3 C 20,6 C 5,7 km/h (1 Bft)
14.06.2017 21:00 25,1 C 18,6 C 42 % 57 % 1016,0 hPa 0,0 l/m 2,6 km/h (1 Bft) N 0,00 h 0,0 UV-I 6 W/m 9,9 C 18,5 C 5,4 km/h (1 Bft)
14.06.2017 22:00 25,5 C 17,2 C 44 % 63 % 1016,5 hPa 0,0 l/m 0,0 km/h (0 Bft) N 0,00 h 0,0 UV-I 0 W/m 10,1 C 17,2 C 0,2 km/h (0 Bft)
14.06.2017 23:00 25,4 C 16,1 C 44 % 67 % 1016,8 hPa 0,0 l/m 0,0 km/h (0 Bft) N 0,00 h 0,0 UV-I 0 W/m 9,9 C 16,1 C 0,1 km/h (0 Bft)
15.06.2017 00:00 25,1 C 15,4 C 44 % 69 % 1016,8 hPa 0,0 l/m 1,2 km/h (1 Bft) O-NO 0,00 h 0,0 UV-I 0 W/m 9,7 C 15,4 C 3,7 km/h (1 Bft)
15.06.2017 01:00 25,0 C 15,0 C 44 % 69 % 1016,4 hPa 0,0 l/m 2,7 km/h (1 Bft) O-NO 0,00 h 0,0 UV-I 0 W/m 9,4 C 15,0 C 7,0 km/h (2 Bft)
15.06.2017 02:00 24,9 C 14,6 C 44 % 71 % 1016,5 hPa 0,0 l/m 1,3 km/h (1 Bft) O-NO 0,00 h 0,0 UV-I 0 W/m 9,3 C 14,6 C 4,0 km/h (1 Bft)
15.06.2017 03:00 24,9 C 13,8 C 44 % 74 % 1016,4 hPa 0,0 l/m 1,0 km/h (0 Bft) O-NO 0,00 h 0,0 UV-I 0 W/m 9,3 C 13,8 C 3,4 km/h (1 Bft)
15.06.2017 04:00 24,8 C 13,2 C 44 % 75 % 1016,4 hPa 0,0 l/m 0,8 km/h (0 Bft) O-NO 0,00 h 0,0 UV-I 0 W/m 9,0 C 13,2 C 3,0 km/h (1 Bft)
15.06.2017 05:00 24,7 C 11,1 C 44 % 85 % 1016,6 hPa 0,0 l/m 0,0 km/h (0 Bft) N 0,00 h 0,0 UV-I 11 W/m 8,6 C 11,1 C 0,2 km/h (0 Bft)
15.06.2017 06:00 24,7 C 12,1 C 44 % 85 % 1016,7 hPa 0,0 l/m 0,0 km/h (0 Bft) N 0,00 h 0,0 UV-I 25 W/m 9,6 C 12,1 C 0,0 km/h (0 Bft)
15.06.2017 07:00 24,7 C 16,0 C 45 % 72 % 1016,6 hPa 0,0 l/m 0,0 km/h (0 Bft) N 0,67 h 1,1 UV-I 245 W/m 10,9 C 16,0 C 0,0 km/h (0 Bft)
15.06.2017 08:00 24,7 C 19,3 C 45 % 60 % 1016,5 hPa 0,0 l/m 0,9 km/h (0 Bft) O-SO 1,00 h 2,0 UV-I 486 W/m 11,4 C 19,3 C 1,9 km/h (1 Bft)
15.06.2017 09:00 24,8 C 21,6 C 45 % 54 % 1016,3 hPa 0,0 l/m 1,8 km/h (1 Bft) SO 1,00 h 3,2 UV-I 623 W/m 12,0 C 21,6 C 4,0 km/h (1 Bft)
15.06.2017 10:00 24,7 C 23,6 C 44 % 49 % 1016,2 hPa 0,0 l/m 4,5 km/h (1 Bft) S 1,00 h 4,9 UV-I 744 W/m 12,2 C 23,4 C 7,8 km/h (2 Bft)
15.06.2017 11:00 24,8 C 24,9 C 44 % 47 % 1016,2 hPa 0,0 l/m 3,7 km/h (1 Bft) S 1,00 h 6,1 UV-I 811 W/m 12,9 C 24,8 C 7,7 km/h (2 Bft)
15.06.2017 12:00 25,2 C 25,4 C 45 % 46 % 1015,8 hPa 0,0 l/m 4,3 km/h (1 Bft) S 1,00 h 6,7 UV-I 854 W/m 12,8 C 25,2 C 8,3 km/h (2 Bft)
15.06.2017 13:00 25,4 C 26,6 C 44 % 43 % 1015,4 hPa 0,0 l/m 4,1 km/h (1 Bft) W-SW 1,00 h 7,0 UV-I 874 W/m 13,1 C 26,4 C 7,3 km/h (2 Bft)
15.06.2017 14:00 25,6 C 27,7 C 44 % 47 % 1014,9 hPa 0,0 l/m 3,2 km/h (1 Bft) W-SW 1,00 h 7,2 UV-I 958 W/m 15,3 C 27,6 C 6,9 km/h (2 Bft)
15.06.2017 15:00 26,1 C 27,9 C 42 % 39 % 1014,4 hPa 0,0 l/m 4,0 km/h (1 Bft) W-SW 1,00 h 5,5 UV-I 781 W/m 12,7 C 27,9 C 8,8 km/h (2 Bft)
15.06.2017 16:00 26,2 C 27,6 C 43 % 40 % 1013,8 hPa 0,0 l/m 3,2 km/h (1 Bft) W-SW 0,93 h 3,3 UV-I 516 W/m 12,8 C 27,5 C 7,2 km/h (2 Bft)
15.06.2017 17:00 26,3 C 27,5 C 43 % 41 % 1013,2 hPa 0,0 l/m 3,8 km/h (1 Bft) W-NW 0,90 h 2,2 UV-I 440 W/m 12,9 C 27,4 C 7,9 km/h (2 Bft)
15.06.2017 18:00 26,4 C 27,0 C 42 % 39 % 1012,9 hPa 0,0 l/m 3,3 km/h (1 Bft) W-SW 0,75 h 1,0 UV-I 165 W/m 12,0 C 27,0 C 5,9 km/h (2 Bft)
15.06.2017 19:00 26,3 C 26,4 C 43 % 43 % 1012,7 hPa 0,0 l/m 1,4 km/h (1 Bft) S 0,00 h 0,5 UV-I 83 W/m 12,7 C 26,4 C 3,2 km/h (1 Bft)
15.06.2017 20:00 26,3 C 24,8 C 44 % 49 % 1012,3 hPa 0,0 l/m 0,2 km/h (0 Bft) W 0,00 h 0,0 UV-I 25 W/m 13,4 C 24,8 C 0,3 km/h (0 Bft)
15.06.2017 21:00 26,1 C 22,5 C 46 % 60 % 1012,0 hPa 0,0 l/m 0,0 km/h (0 Bft) N 0,00 h 0,0 UV-I 7 W/m 14,3 C 22,5 C 0,0 km/h (0 Bft)
15.06.2017 22:00 26,2 C 21,2 C 48 % 67 % 1011,9 hPa 0,0 l/m 0,0 km/h (0 Bft) N 0,00 h 0,0 UV-I 0 W/m 14,7 C 21,2 C 0,0 km/h (0 Bft)
15.06.2017 23:00 26,2 C 20,6 C 48 % 69 % 1012,0 hPa 0,0 l/m 0,0 km/h (0 Bft) N 0,00 h 0,0 UV-I 0 W/m 14,7 C 20,6 C 0,0 km/h (0 Bft)
16.06.2017 00:00 25,9 C 20,0 C 49 % 72 % 1012,2 hPa 0,0 l/m 0,0 km/h (0 Bft) N 0,00 h 0,0 UV-I 0 W/m 14,9 C 20,0 C 0,0 km/h (0 Bft)
16.06.2017 01:00 25,7 C 19,3 C 49 % 75 % 1011,8 hPa 0,0 l/m 1,3 km/h (1 Bft) N 0,00 h 0,0 UV-I 0 W/m 14,7 C 19,3 C 0,5 km/h (0 Bft)
16.06.2017 02:00 25,9 C 18,6 C 49 % 78 % 1011,6 hPa 0,0 l/m 0,4 km/h (0 Bft) N 0,00 h 0,0 UV-I 0 W/m 14,7 C 18,6 C 0,0 km/h (0 Bft)
16.06.2017 03:00 25,5 C 18,2 C 50 % 80 % 1011,6 hPa 0,0 l/m 0,2 km/h (0 Bft) S 0,00 h 0,0 UV-I 0 W/m 14,6 C 18,2 C 0,9 km/h (0 Bft)
16.06.2017 04:00 25,2 C 18,2 C 51 % 82 % 1012,0 hPa 0,0 l/m 1,0 km/h (0 Bft) S-SW 0,00 h 0,0 UV-I 0 W/m 15,0 C 18,2 C 3,0 km/h (1 Bft)
16.06.2017 05:00 25,1 C 18,0 C 52 % 84 % 1012,4 hPa 0,0 l/m 2,2 km/h (1 Bft) N 0,00 h 0,0 UV-I 15 W/m 15,3 C 17,9 C 2,1 km/h (1 Bft)
16.06.2017 06:00 25,2 C 18,3 C 52 % 84 % 1012,7 hPa 0,0 l/m 3,6 km/h (1 Bft) W 0,00 h 0,5 UV-I 75 W/m 15,5 C 18,1 C 5,6 km/h (1 Bft)
16.06.2017 07:00 25,1 C 18,8 C 53 % 81 % 1013,1 hPa 0,0 l/m 4,3 km/h (1 Bft) W-SW 0,15 h 0,7 UV-I 128 W/m 15,4 C 18,7 C 7,5 km/h (2 Bft)
16.06.2017 08:00 25,3 C 19,2 C 53 % 76 % 1013,6 hPa 0,0 l/m 7,4 km/h (2 Bft) W 1,00 h 1,3 UV-I 232 W/m 14,9 C 18,5 C 11,9 km/h (2 Bft)
16.06.2017 09:00 25,5 C 20,5 C 52 % 67 % 1013,8 hPa 0,0 l/m 7,0 km/h (2 Bft) W 1,00 h 2,8 UV-I 528 W/m 14,2 C 19,9 C 12,6 km/h (3 Bft)
16.06.2017 10:00 25,3 C 21,7 C 50 % 58 % 1013,9 hPa 0,0 l/m 8,0 km/h (2 Bft) W 0,95 h 3,9 UV-I 634 W/m 13,1 C 21,1 C 13,5 km/h (3 Bft)
16.06.2017 11:00 25,4 C 21,8 C 48 % 55 % 1014,1 hPa 0,0 l/m 8,2 km/h (2 Bft) W 0,97 h 3,8 UV-I 535 W/m 12,4 C 21,0 C 15,2 km/h (3 Bft)
16.06.2017 12:00 25,3 C 20,8 C 47 % 62 % 1014,3 hPa 0,0 l/m 9,8 km/h (2 Bft) W-NW 0,58 h 3,4 UV-I 340 W/m 13,1 C 19,5 C 17,8 km/h (3 Bft)
16.06.2017 13:00 25,6 C 21,7 C 48 % 56 % 1014,5 hPa 0,0 l/m 9,9 km/h (2 Bft) W-NW 0,88 h 4,1 UV-I 478 W/m 12,4 C 20,5 C 18,4 km/h (3 Bft)
16.06.2017 14:00 25,6 C 21,8 C 47 % 51 % 1014,7 hPa 0,0 l/m 9,6 km/h (2 Bft) W-SW 1,00 h 5,0 UV-I 599 W/m 11,2 C 20,7 C 16,0 km/h (3 Bft)
16.06.2017 15:00 25,6 C 22,2 C 44 % 47 % 1014,9 hPa 0,0 l/m 14,9 km/h (3 Bft) W 1,00 h 4,4 UV-I 627 W/m 10,5 C 20,1 C 17,5 km/h (3 Bft)
16.06.2017 16:00 25,3 C 20,9 C 44 % 55 % 1015,2 hPa 0,0 l/m 7,4 km/h (2 Bft) NW 1,00 h 2,2 UV-I 358 W/m 11,5 C 20,1 C 13,4 km/h (3 Bft)
16.06.2017 17:00 25,3 C 20,4 C 44 % 52 % 1015,4 hPa 0,0 l/m 12,4 km/h (3 Bft) W-NW 0,70 h 1,5 UV-I 252 W/m 10,1 C 18,4 C 18,8 km/h (3 Bft)
16.06.2017 18:00 25,7 C 19,4 C 45 % 53 % 1015,7 hPa 0,0 l/m 13,2 km/h (3 Bft) W-NW 0,10 h 0,8 UV-I 127 W/m 9,6 C 17,2 C 22,8 km/h (4 Bft)
16.06.2017 19:00 25,7 C 18,6 C 45 % 53 % 1016,5 hPa 0,0 l/m 15,4 km/h (3 Bft) W-NW 0,00 h 0,5 UV-I 60 W/m 8,8 C 15,7 C 24,3 km/h (4 Bft)
16.06.2017 20:00 25,7 C 17,7 C 46 % 58 % 1017,1 hPa 0,0 l/m 11,4 km/h (2 Bft) W-NW 0,00 h 0,0 UV-I 17 W/m 9,3 C 15,6 C 18,2 km/h (3 Bft)
16.06.2017 21:00 25,8 C 16,5 C 46 % 67 % 1017,9 hPa 0,0 l/m 3,5 km/h (1 Bft) NW 0,00 h 0,0 UV-I 0 W/m 10,2 C 16,4 C 8,0 km/h (2 Bft)
16.06.2017 22:00 25,9 C 15,4 C 47 % 67 % 1018,7 hPa 0,0 l/m 5,5 km/h (1 Bft) NW 0,00 h 0,0 UV-I 0 W/m 9,3 C 14,8 C 11,3 km/h (2 Bft)
16.06.2017 23:00 25,7 C 14,6 C 47 % 66 % 1019,5 hPa 0,0 l/m 7,5 km/h (2 Bft) NW 0,00 h 0,0 UV-I 0 W/m 8,3 C 13,2 C 12,2 km/h (2 Bft)
17.06.2017 00:00 25,6 C 14,3 C 47 % 67 % 1019,8 hPa 0,0 l/m 4,4 km/h (1 Bft) W-NW 0,00 h 0,0 UV-I 0 W/m 8,2 C 13,7 C 7,5 km/h (2 Bft)
17.06.2017 01:00 25,5 C 14,1 C 47 % 69 % 1020,0 hPa 0,0 l/m 0,7 km/h (0 Bft) W-NW 0,00 h 0,0 UV-I 0 W/m 8,4 C 14,1 C 2,4 km/h (1 Bft)
17.06.2017 02:00 25,3 C 13,7 C 48 % 69 % 1020,3 hPa 0,0 l/m 5,3 km/h (1 Bft) W-NW 0,00 h 0,0 UV-I 0 W/m 8,2 C 13,2 C 9,3 km/h (2 Bft)
17.06.2017 03:00 25,3 C 13,1 C 48 % 72 % 1020,6 hPa 0,0 l/m 7,0 km/h (2 Bft) NW 0,00 h 0,0 UV-I 0 W/m 8,0 C 11,7 C 10,6 km/h (2 Bft)
17.06.2017 04:00 25,3 C 12,0 C 48 % 75 % 1020,7 hPa 0,0 l/m 0,6 km/h (0 Bft) N 0,00 h 0,0 UV-I 0 W/m 7,8 C 12,0 C 0,6 km/h (0 Bft)
17.06.2017 05:00 25,3 C 11,3 C 48 % 78 % 1020,9 hPa 0,0 l/m 0,3 km/h (0 Bft) W 0,00 h 0,0 UV-I 14 W/m 7,6 C 11,3 C 1,2 km/h (1 Bft)
17.06.2017 06:00 25,2 C 10,9 C 48 % 80 % 1021,2 hPa 0,0 l/m 0,1 km/h (0 Bft) W-SW 0,00 h 0,5 UV-I 33 W/m 7,6 C 10,9 C 0,6 km/h (0 Bft)
17.06.2017 07:00 25,1 C 12,3 C 49 % 76 % 1021,6 hPa 0,0 l/m 5,8 km/h (2 Bft) W-NW 0,58 h 0,9 UV-I 224 W/m 8,3 C 11,5 C 11,5 km/h (2 Bft)
17.06.2017 08:00 25,3 C 14,2 C 49 % 69 % 1021,8 hPa 0,0 l/m 9,1 km/h (2 Bft) W-NW 0,78 h 1,7 UV-I 410 W/m 8,5 C 12,4 C 16,1 km/h (3 Bft)
17.06.2017 09:00 25,3 C 14,5 C 47 % 66 % 1022,0 hPa 0,0 l/m 8,9 km/h (2 Bft) NW 1,00 h 2,0 UV-I 278 W/m 8,4 C 12,9 C 14,8 km/h (3 Bft)
17.06.2017 10:00 25,5 C 16,3 C 47 % 60 % 1022,1 hPa 0,0 l/m 13,5 km/h (3 Bft) NW 1,00 h 4,2 UV-I 599 W/m 8,6 C 13,5 C 17,6 km/h (3 Bft)
17.06.2017 11:00 25,7 C 16,9 C 46 % 57 % 1022,1 hPa 0,0 l/m 9,6 km/h (2 Bft) N 1,00 h 5,0 UV-I 662 W/m 8,3 C 15,2 C 10,1 km/h (2 Bft)
17.06.2017 12:00 25,8 C 17,1 C 46 % 56 % 1022,2 hPa 0,0 l/m 8,0 km/h (2 Bft) W-NW 1,00 h 4,7 UV-I 555 W/m 8,4 C 16,0 C 9,9 km/h (2 Bft)
17.06.2017 13:00 25,9 C 18,1 C 46 % 54 % 1022,1 hPa 0,0 l/m 7,7 km/h (2 Bft) N 1,00 h 5,1 UV-I 461 W/m 8,7 C 17,0 C 8,4 km/h (2 Bft)
17.06.2017 14:00 26,0 C 19,0 C 45 % 52 % 1022,0 hPa 0,0 l/m 5,2 km/h (1 Bft) N 1,00 h 4,6 UV-I 543 W/m 8,9 C 18,3 C 4,2 km/h (1 Bft)
17.06.2017 15:00 25,8 C 20,2 C 43 % 50 % 1022,0 hPa 0,0 l/m 8,8 km/h (2 Bft) N 1,00 h 4,9 UV-I 675 W/m 9,3 C 19,0 C 11,7 km/h (2 Bft)
17.06.2017 16:00 25,4 C 20,1 C 42 % 51 % 1021,9 hPa 0,0 l/m 9,4 km/h (2 Bft) NW 0,98 h 3,3 UV-I 542 W/m 9,5 C 18,8 C 14,1 km/h (3 Bft)
17.06.2017 17:00 25,4 C 19,3 C 42 % 54 % 1021,8 hPa 0,0 l/m 7,0 km/h (2 Bft) N 0,75 h 1,9 UV-I 258 W/m 9,7 C 18,3 C 9,0 km/h (2 Bft)
17.06.2017 18:00 25,3 C 18,5 C 41 % 57 % 1021,9 hPa 0,0 l/m 7,7 km/h (2 Bft) N 0,00 h 1,1 UV-I 68 W/m 9,7 C 17,3 C 7,5 km/h (2 Bft)
17.06.2017 19:00 24,9 C 17,9 C 42 % 57 % 1022,0 hPa 0,0 l/m 7,2 km/h (2 Bft) W-NW 0,00 h 0,6 UV-I 53 W/m 9,2 C 17,1 C 9,1 km/h (2 Bft)
17.06.2017 20:00 25,0 C 17,2 C 42 % 59 % 1022,4 hPa 0,0 l/m 1,4 km/h (1 Bft) N 0,00 h 0,0 UV-I 29 W/m 9,1 C 17,2 C 2,8 km/h (1 Bft)
17.06.2017 21:00 25,3 C 15,7 C 43 % 66 % 1022,8 hPa 0,0 l/m 0,1 km/h (0 Bft) NW 0,00 h 0,0 UV-I 9 W/m 9,3 C 15,7 C 0,3 km/h (0 Bft)
17.06.2017 22:00 25,4 C 14,2 C 44 % 75 % 1023,3 hPa 0,0 l/m 0,0 km/h (0 Bft) N 0,00 h 0,0 UV-I 0 W/m 9,8 C 14,2 C 0,2 km/h (0 Bft)
17.06.2017 23:00 25,4 C 13,4 C 45 % 83 % 1024,0 hPa 0,0 l/m 0,1 km/h (0 Bft) NW 0,00 h 0,0 UV-I 0 W/m 10,5 C 13,4 C 0,6 km/h (0 Bft)
18.06.2017 00:00 25,3 C 12,6 C 45 % 85 % 1024,3 hPa 0,0 l/m 0,0 km/h (0 Bft) N 0,00 h 0,0 UV-I 0 W/m 10,1 C 12,6 C 0,0 km/h (0 Bft)
18.06.2017 01:00 25,2 C 11,4 C 45 % 89 % 1024,7 hPa 0,0 l/m 0,0 km/h (0 Bft) N 0,00 h 0,0 UV-I 0 W/m 9,6 C 11,4 C 0,0 km/h (0 Bft)
18.06.2017 02:00 25,0 C 11,3 C 45 % 90 % 1024,7 hPa 0,0 l/m 0,0 km/h (0 Bft) N 0,00 h 0,0 UV-I 0 W/m 9,6 C 11,3 C 0,2 km/h (0 Bft)
18.06.2017 03:00 24,6 C 10,7 C 46 % 92 % 1024,6 hPa 0,0 l/m 0,0 km/h (0 Bft) N 0,00 h 0,0 UV-I 0 W/m 9,4 C 10,7 C 0,3 km/h (0 Bft)
18.06.2017 04:00 24,2 C 10,5 C 47 % 93 % 1024,6 hPa 0,0 l/m 0,0 km/h (0 Bft) N 0,00 h 0,0 UV-I 0 W/m 9,5 C 10,5 C 0,0 km/h (0 Bft)
18.06.2017 05:00 24,1 C 10,3 C 47 % 94 % 1024,9 hPa 0,0 l/m 0,0 km/h (0 Bft) N 0,00 h 0,0 UV-I 14 W/m 9,4 C 10,3 C 0,0 km/h (0 Bft)
18.06.2017 06:00 24,0 C 10,8 C 48 % 94 % 1025,0 hPa 0,0 l/m 0,0 km/h (0 Bft) N 0,00 h 0,5 UV-I 47 W/m 9,9 C 10,8 C 0,0 km/h (0 Bft)
18.06.2017 07:00 24,6 C 13,1 C 48 % 91 % 1025,3 hPa 0,0 l/m 0,0 km/h (0 Bft) N 0,45 h 0,9 UV-I 170 W/m 11,7 C 13,1 C 0,0 km/h (0 Bft)
18.06.2017 08:00 25,2 C 15,8 C 47 % 82 % 1025,4 hPa 0,0 l/m 0,3 km/h (0 Bft) N-NW 0,98 h 1,9 UV-I 410 W/m 12,7 C 15,8 C 0,6 km/h (0 Bft)
18.06.2017 09:00 25,2 C 18,0 C 48 % 70 % 1025,4 hPa 0,0 l/m 1,3 km/h (1 Bft) NW 1,00 h 3,0 UV-I 555 W/m 12,5 C 18,0 C 1,7 km/h (1 Bft)
18.06.2017 10:00 24,8 C 17,9 C 45 % 65 % 1025,3 hPa 0,0 l/m 0,0 km/h (0 Bft) N 1,00 h 3,1 UV-I 323 W/m 11,1 C 17,9 C 0,0 km/h (0 Bft)
18.06.2017 11:00 24,8 C 19,3 C 46 % 59 % 1025,2 hPa 0,0 l/m 0,4 km/h (0 Bft) N 1,00 h 5,6 UV-I 624 W/m 11,1 C 19,3 C 0,2 km/h (0 Bft)
18.06.2017 12:00 25,5 C 21,7 C 47 % 50 % 1025,0 hPa 0,0 l/m 1,9 km/h (1 Bft) N 1,00 h 7,8 UV-I 941 W/m 11,0 C 21,7 C 1,6 km/h (1 Bft)
18.06.2017 13:00 25,6 C 21,9 C 46 % 50 % 1024,7 hPa 0,0 l/m 0,5 km/h (0 Bft) N 1,00 h 6,1 UV-I 640 W/m 11,0 C 21,9 C 0,7 km/h (0 Bft)
18.06.2017 14:00 25,8 C 23,5 C 45 % 47 % 1024,3 hPa 0,0 l/m 1,0 km/h (0 Bft) N 1,00 h 6,7 UV-I 838 W/m 11,5 C 23,5 C 0,0 km/h (0 Bft)
18.06.2017 15:00 25,7 C 24,0 C 43 % 46 % 1023,7 hPa 0,0 l/m 3,0 km/h (1 Bft) N 1,00 h 5,8 UV-I 807 W/m 11,5 C 24,0 C 1,0 km/h (0 Bft)
18.06.2017 16:00 25,7 C 23,3 C 44 % 47 % 1023,4 hPa 0,0 l/m 4,9 km/h (1 Bft) N 0,85 h 3,6 UV-I 500 W/m 11,4 C 23,3 C 1,2 km/h (1 Bft)
18.06.2017 17:00 25,6 C 23,5 C 44 % 46 % 1023,1 hPa 0,0 l/m 6,4 km/h (2 Bft) N 0,87 h 2,4 UV-I 450 W/m 11,3 C 23,6 C 0,0 km/h (0 Bft)
18.06.2017 18:00 25,6 C 23,0 C 44 % 47 % 1022,8 hPa 0,0 l/m 5,1 km/h (1 Bft) N 0,00 h 1,2 UV-I 53 W/m 11,0 C 23,0 C 1,3 km/h (1 Bft)
18.06.2017 19:00 25,7 C 22,3 C 44 % 49 % 1022,6 hPa 0,0 l/m 1,6 km/h (1 Bft) N 0,00 h 0,0 UV-I 34 W/m 10,9 C 22,3 C 2,0 km/h (1 Bft)
18.06.2017 20:00 25,7 C 21,4 C 44 % 52 % 1022,6 hPa 0,0 l/m 0,0 km/h (0 Bft) N 0,00 h 0,0 UV-I 18 W/m 11,0 C 21,4 C 0,0 km/h (0 Bft)
18.06.2017 21:00 25,9 C 19,5 C 46 % 61 % 1022,8 hPa 0,0 l/m 0,0 km/h (0 Bft) N 0,00 h 0,0 UV-I 6 W/m 11,6 C 19,5 C 0,0 km/h (0 Bft)
18.06.2017 22:00 25,8 C 17,0 C 47 % 73 % 1023,2 hPa 0,0 l/m 0,0 km/h (0 Bft) N 0,00 h 0,0 UV-I 0 W/m 12,1 C 17,0 C 0,0 km/h (0 Bft)
18.06.2017 23:00 25,4 C 15,3 C 47 % 80 % 1023,4 hPa 0,0 l/m 0,0 km/h (0 Bft) N 0,00 h 0,0 UV-I 0 W/m 11,9 C 15,3 C 0,0 km/h (0 Bft)
Min-Datum _ 14.06.17 14.06.17 17.06.17 12.06.17 12.06.17 - 12.06.17 - - - - 12.06.17 14.06.17 12.06.17
_ Min-Zeit 08:55 05:16 18:49 18:15 10:38 - 00:00 - - - - 18:15 05:17 00:00
Minimum _ 23,4 C 7,7 C 40 % 31 % 1011,3 hPa - 0,0 km/h (0 Bft) - - - - 4,8 C 7,7 C 0,0 km/h (0 Bft)
Max-Datum _ 15.06.17 15.06.17 16.06.17 18.06.17 18.06.17 12.06.17 12.06.17 - 15.06.17 17.06.17 13.06.17 12.06.17 15.06.17 12.06.17
_ Max-Zeit 18:36 15:32 06:59 06:38 08:55 00:00 14:34 - 13:26 12:45 12:50 11:54 16:09 13:32
Maximum _ 26,6 C 28,3 C 53 % 95 % 1025,6 hPa 0,0 l/m 32,2 km/h
W-SW (5 Bft)
- 0,05 h 8,6 UV-I 1201 W/m 17,8 C 28,3 C 46,7 km/h
W-SW (6 Bft)
Durchschnitt _ 25,3 C 18,1 C 46 % 64 % 1017,5 hPa #0,0 l/m 3,6 km/h (1 Bft) W-NW #71:12 h 3,4 UV-I 374 W/m 10,7 C 17,7 C 6,0 km/h (2 Bft)